Time;durP1;ratioP1;P1;durP2;ratioP2;P2;SDS_P1;SDS_P2;PMS_P1;PMS_P2;Temp;Humidity;BMP_temperature;BMP_pressure;BME280_temperature;BME280_humidity;BME280_pressure;Samples;Min_cycle;Max_cycle;Signal;HPM_P1;HPM_P2
2021/01/25 00:02:14;;;;;;;2.88;1.40;;;;;;;;;;5073728;28;20238;-60
2021/01/25 00:04:40;;;;;;;1.70;1.60;;;;;;;;;;5073324;28;20217;-59
2021/01/25 00:07:06;;;;;;;1.65;1.55;;;;;;;;;;5066706;28;20713;-59
2021/01/25 00:09:33;;;;;;;2.08;1.40;;;;;;;;;;5068367;28;20226;-59
2021/01/25 00:11:59;;;;;;;1.60;1.50;;;;;;;;;;5061696;28;20270;-59
2021/01/25 00:14:25;;;;;;;1.50;1.40;;;;;;;;;;5053230;28;20236;-59
2021/01/25 00:16:51;;;;;;;1.65;1.55;;;;;;;;;;5054637;28;20193;-59
2021/01/25 00:19:17;;;;;;;1.63;1.52;;;;;;;;;;5053164;28;20202;-59
2021/01/25 00:21:43;;;;;;;1.83;1.40;;;;;;;;;;5059607;28;20448;-59
2021/01/25 00:24:09;;;;;;;1.38;1.27;;;;;;;;;;5054443;28;20187;-59
2021/01/25 00:26:35;;;;;;;1.52;1.42;;;;;;;;;;5057071;28;20254;-59
2021/01/25 00:29:01;;;;;;;1.30;1.20;;;;;;;;;;5063887;28;20206;-59
2021/01/25 00:31:27;;;;;;;1.23;1.13;;;;;;;;;;5072544;28;20205;-59
2021/01/25 00:33:53;;;;;;;1.55;1.38;;;;;;;;;;5056532;28;20461;-59
2021/01/25 00:36:19;;;;;;;1.67;1.27;;;;;;;;;;5059325;28;20225;-59
2021/01/25 00:38:45;;;;;;;1.40;1.30;;;;;;;;;;5053670;28;20175;-59
2021/01/25 00:41:11;;;;;;;1.50;1.40;;;;;;;;;;5053402;28;20231;-59
2021/01/25 00:43:37;;;;;;;1.33;1.23;;;;;;;;;;5060801;28;20178;-59
2021/01/25 00:46:03;;;;;;;1.60;1.50;;;;;;;;;;5060456;28;20229;-59
2021/01/25 00:48:29;;;;;;;1.40;1.30;;;;;;;;;;5054346;28;20256;-59
2021/01/25 00:50:55;;;;;;;1.88;1.40;;;;;;;;;;5063914;28;20636;-59
2021/01/25 00:53:21;;;;;;;1.48;1.15;;;;;;;;;;5054191;28;20429;-59
2021/01/25 00:55:47;;;;;;;1.80;1.30;;;;;;;;;;5069523;28;20182;-59
2021/01/25 00:58:13;;;;;;;2.50;1.25;;;;;;;;;;5069413;28;20562;-59
2021/01/25 01:00:39;;;;;;;1.45;1.35;;;;;;;;;;5072381;28;20221;-59
2021/01/25 01:03:05;;;;;;;1.73;0.90;;;;;;;;;;5070707;28;20178;-59
2021/01/25 01:05:31;;;;;;;1.30;1.20;;;;;;;;;;5072173;28;20178;-59
2021/01/25 01:07:57;;;;;;;2.45;1.30;;;;;;;;;;5061425;28;20606;-59
2021/01/25 01:10:23;;;;;;;1.50;1.15;;;;;;;;;;5055666;28;20183;-59
2021/01/25 01:12:49;;;;;;;2.17;1.30;;;;;;;;;;5067564;28;20179;-59
2021/01/25 01:15:16;;;;;;;1.35;1.25;;;;;;;;;;5066713;28;20194;-59
2021/01/25 01:17:42;;;;;;;1.20;1.10;;;;;;;;;;5072872;28;20191;-59
2021/01/25 01:20:08;;;;;;;1.38;1.27;;;;;;;;;;5064997;28;20215;-59
2021/01/25 01:22:34;;;;;;;1.25;1.15;;;;;;;;;;5067408;28;21042;-59
2021/01/25 01:25:00;;;;;;;1.77;1.48;;;;;;;;;;5069383;28;20698;-59
2021/01/25 01:27:26;;;;;;;1.10;1.10;;;;;;;;;;5053629;28;20183;-59
2021/01/25 01:29:52;;;;;;;1.20;1.10;;;;;;;;;;5053089;28;20285;-59
2021/01/25 01:32:19;;;;;;;1.55;1.00;;;;;;;;;;5052639;28;20642;-58
2021/01/25 01:34:45;;;;;;;2.25;1.33;;;;;;;;;;5070527;28;20190;-59
2021/01/25 01:37:11;;;;;;;1.20;1.10;;;;;;;;;;5063617;28;20207;-59
2021/01/25 01:39:37;;;;;;;1.15;1.00;;;;;;;;;;5054962;28;20210;-59
2021/01/25 01:42:04;;;;;;;1.88;1.15;;;;;;;;;;5058020;28;20232;-59
2021/01/25 01:44:30;;;;;;;1.40;1.30;;;;;;;;;;5067126;28;20183;-59
2021/01/25 01:46:56;;;;;;;1.00;1.00;;;;;;;;;;5075166;28;20190;-59
2021/01/25 01:49:22;;;;;;;1.08;1.08;;;;;;;;;;5073400;28;20182;-59
2021/01/25 01:51:48;;;;;;;1.25;1.10;;;;;;;;;;5066935;28;20187;-59
2021/01/25 01:54:15;;;;;;;1.15;1.00;;;;;;;;;;5067199;28;20197;-59
2021/01/25 01:56:41;;;;;;;1.15;1.05;;;;;;;;;;5059380;28;20268;-59
2021/01/25 01:59:07;;;;;;;1.25;1.10;;;;;;;;;;5069044;28;20191;-59
2021/01/25 02:01:33;;;;;;;1.27;1.17;;;;;;;;;;5072819;28;20247;-59
2021/01/25 02:04:00;;;;;;;1.08;0.98;;;;;;;;;;5074943;28;20197;-59
2021/01/25 02:06:27;;;;;;;1.20;1.10;;;;;;;;;;5054983;28;20176;-59
2021/01/25 02:08:53;;;;;;;1.40;1.30;;;;;;;;;;5059717;28;20558;-58
2021/01/25 02:11:20;;;;;;;1.23;1.13;;;;;;;;;;5064730;28;20267;-58
2021/01/25 02:13:47;;;;;;;1.02;1.00;;;;;;;;;;5056253;28;20633;-58
2021/01/25 02:16:13;;;;;;;1.20;1.00;;;;;;;;;;5060924;28;20805;-58
2021/01/25 02:18:39;;;;;;;1.10;1.00;;;;;;;;;;5057407;28;20957;-58
2021/01/25 02:21:07;;;;;;;1.00;0.90;;;;;;;;;;5072355;28;20732;-58
2021/01/25 02:23:51;;;;;;;1.10;1.00;;;;;;;;;;5066148;28;20497;-58
2021/01/25 02:26:26;;;;;;;1.10;1.00;;;;;;;;;;5058552;28;20179;-58
2021/01/25 02:28:53;;;;;;;1.05;1.02;;;;;;;;;;5055490;28;20189;-58
2021/01/25 02:31:19;;;;;;;1.20;1.10;;;;;;;;;;5063114;28;20563;-58
2021/01/25 02:33:53;;;;;;;0.95;0.95;;;;;;;;;;5067081;28;20197;-58
2021/01/25 02:36:20;;;;;;;1.33;1.08;;;;;;;;;;5059299;28;20252;-58
2021/01/25 02:38:48;;;;;;;2.17;1.20;;;;;;;;;;5075582;28;20273;-58
2021/01/25 02:41:15;;;;;;;0.90;0.90;;;;;;;;;;5058033;28;20254;-58
2021/01/25 02:43:41;;;;;;;1.25;1.15;;;;;;;;;;5066266;28;20515;-58
2021/01/25 02:46:09;;;;;;;1.13;1.02;;;;;;;;;;5068923;28;20187;-58
2021/01/25 02:48:35;;;;;;;0.93;0.82;;;;;;;;;;5070958;28;20185;-57
2021/01/25 02:51:02;;;;;;;1.20;1.10;;;;;;;;;;5070865;28;20195;-57
2021/01/25 02:53:28;;;;;;;1.00;1.00;;;;;;;;;;5070595;28;20191;-57
2021/01/25 02:55:56;;;;;;;1.20;1.10;;;;;;;;;;5074657;28;20178;-57
2021/01/25 02:58:22;;;;;;;1.08;1.08;;;;;;;;;;5073484;28;20205;-57
2021/01/25 03:00:51;;;;;;;1.15;1.10;;;;;;;;;;5073438;28;20217;-57
2021/01/25 03:03:17;;;;;;;1.10;1.00;;;;;;;;;;5057573;28;20212;-58
2021/01/25 03:05:44;;;;;;;1.10;1.10;;;;;;;;;;5054195;28;20258;-57
2021/01/25 03:08:10;;;;;;;0.77;0.77;;;;;;;;;;5072689;28;20182;-57
2021/01/25 03:10:36;;;;;;;1.10;1.00;;;;;;;;;;5071944;28;20183;-57
2021/01/25 03:13:03;;;;;;;0.82;0.82;;;;;;;;;;5060222;28;20183;-57
2021/01/25 03:15:29;;;;;;;1.15;1.02;;;;;;;;;;5053834;28;20519;-57
2021/01/25 03:17:55;;;;;;;0.80;0.80;;;;;;;;;;5053878;28;20171;-57
2021/01/25 03:20:22;;;;;;;1.20;1.10;;;;;;;;;;5053751;28;20203;-57
2021/01/25 03:22:47;;;;;;;1.05;0.90;;;;;;;;;;5065931;28;20188;-57
2021/01/25 03:25:14;;;;;;;0.82;0.82;;;;;;;;;;5062710;28;20187;-57
2021/01/25 03:27:40;;;;;;;1.00;1.00;;;;;;;;;;5053891;28;20209;-57
2021/01/25 03:30:07;;;;;;;1.23;0.95;;;;;;;;;;5063175;28;20213;-57
2021/01/25 03:32:33;;;;;;;1.00;0.90;;;;;;;;;;5063945;28;20582;-56
2021/01/25 03:34:59;;;;;;;0.90;0.90;;;;;;;;;;5059522;28;20183;-56
2021/01/25 03:37:25;;;;;;;0.98;0.93;;;;;;;;;;5053802;28;20559;-56
2021/01/25 03:39:51;;;;;;;1.15;1.00;;;;;;;;;;5066506;28;20214;-56
2021/01/25 03:42:17;;;;;;;0.77;0.70;;;;;;;;;;5065397;28;20186;-56
2021/01/25 03:44:43;;;;;;;0.90;0.90;;;;;;;;;;5059975;28;20187;-56
2021/01/25 03:47:09;;;;;;;0.90;0.90;;;;;;;;;;5063191;28;20324;-56
2021/01/25 03:49:35;;;;;;;1.05;1.05;;;;;;;;;;5071608;28;20194;-56
2021/01/25 03:52:01;;;;;;;0.88;0.88;;;;;;;;;;5067824;28;20254;-56
2021/01/25 03:54:27;;;;;;;1.10;1.00;;;;;;;;;;5063626;28;20301;-55
2021/01/25 03:56:53;;;;;;;1.10;0.85;;;;;;;;;;5062967;28;20187;-56
2021/01/25 03:59:19;;;;;;;0.93;0.93;;;;;;;;;;5053500;28;20286;-56
2021/01/25 04:01:45;;;;;;;1.00;0.90;;;;;;;;;;5057704;28;20214;-55
2021/01/25 04:04:11;;;;;;;1.10;1.00;;;;;;;;;;5061573;28;20193;-55
2021/01/25 04:06:37;;;;;;;0.95;0.95;;;;;;;;;;5070200;28;20186;-55
2021/01/25 04:09:05;;;;;;;1.45;0.80;;;;;;;;;;5069833;28;20639;-55
2021/01/25 04:11:31;;;;;;;1.60;1.08;;;;;;;;;;5059489;28;20455;-55
2021/01/25 04:13:57;;;;;;;1.73;1.02;;;;;;;;;;5059861;28;20232;-55
2021/01/25 04:16:23;;;;;;;1.20;0.82;;;;;;;;;;5058827;28;20240;-55
2021/01/25 04:18:49;;;;;;;0.85;0.85;;;;;;;;;;5053461;28;20194;-55
2021/01/25 04:21:15;;;;;;;0.90;0.90;;;;;;;;;;5063498;28;20231;-55
2021/01/25 04:23:41;;;;;;;1.20;1.10;;;;;;;;;;5064636;28;20186;-55
2021/01/25 04:26:07;;;;;;;1.00;0.90;;;;;;;;;;5064004;28;20187;-55
2021/01/25 04:28:33;;;;;;;0.80;0.80;;;;;;;;;;5053219;28;20190;-55
2021/01/25 04:30:59;;;;;;;1.10;1.10;;;;;;;;;;5062786;28;20186;-54
2021/01/25 04:33:25;;;;;;;0.90;0.90;;;;;;;;;;5066410;28;20218;-56
2021/01/25 04:35:51;;;;;;;1.27;1.15;;;;;;;;;;5060125;28;20187;-55
2021/01/25 04:38:17;;;;;;;1.02;0.95;;;;;;;;;;5061024;28;20199;-55
2021/01/25 04:40:43;;;;;;;0.93;0.85;;;;;;;;;;5065800;28;20259;-55
2021/01/25 04:43:09;;;;;;;1.00;1.00;;;;;;;;;;5062940;28;20576;-55
2021/01/25 04:45:35;;;;;;;1.00;1.00;;;;;;;;;;5064096;28;20199;-55
2021/01/25 04:48:02;;;;;;;0.90;0.90;;;;;;;;;;5059615;28;20546;-55
2021/01/25 04:50:28;;;;;;;1.23;1.13;;;;;;;;;;5058480;28;20187;-55
2021/01/25 04:52:54;;;;;;;1.50;1.40;;;;;;;;;;5055132;28;20276;-55
2021/01/25 04:55:20;;;;;;;0.90;0.90;;;;;;;;;;5056485;28;20555;-55
2021/01/25 04:57:47;;;;;;;1.35;1.25;;;;;;;;;;5062451;28;20178;-55
2021/01/25 05:00:14;;;;;;;1.10;1.10;;;;;;;;;;5072500;28;20206;-55
2021/01/25 05:02:40;;;;;;;1.10;1.10;;;;;;;;;;5067061;28;20179;-56
2021/01/25 05:05:07;;;;;;;1.30;1.20;;;;;;;;;;5052916;28;20195;-56
2021/01/25 05:07:33;;;;;;;1.50;1.40;;;;;;;;;;5052500;28;20175;-56
2021/01/25 05:09:59;;;;;;;1.70;1.60;;;;;;;;;;5052912;28;20188;-56
2021/01/25 05:12:25;;;;;;;1.40;1.30;;;;;;;;;;5056194;28;20195;-56
2021/01/25 05:14:51;;;;;;;1.90;1.30;;;;;;;;;;5054783;28;20273;-56
2021/01/25 05:17:17;;;;;;;1.20;1.15;;;;;;;;;;5059627;28;20190;-49
2021/01/25 05:19:44;;;;;;;3.08;1.50;;;;;;;;;;5070933;28;20270;-49
2021/01/25 05:22:14;;;;;;;5.13;1.77;;;;;;;;;;5075505;28;20182;-49
2021/01/25 05:24:44;;;;;;;5.65;1.58;;;;;;;;;;5059881;28;20262;-49
2021/01/25 05:27:10;;;;;;;1.92;1.48;;;;;;;;;;5073207;28;20210;-48
2021/01/25 05:29:36;;;;;;;1.40;1.30;;;;;;;;;;5076099;28;20190;-49
2021/01/25 05:32:08;;;;;;;2.65;1.55;;;;;;;;;;5073902;28;20209;-49
2021/01/25 05:34:34;;;;;;;1.35;1.23;;;;;;;;;;5063500;28;20210;-49
2021/01/25 05:37:01;;;;;;;1.98;1.48;;;;;;;;;;5056165;28;20586;-48
2021/01/25 05:39:30;;;;;;;5.97;1.45;;;;;;;;;;5056093;28;20191;-48
2021/01/25 05:41:57;;;;;;;4.63;1.42;;;;;;;;;;5056560;28;20490;-49
2021/01/25 05:44:23;;;;;;;3.05;1.60;;;;;;;;;;5060487;28;20237;-49
2021/01/25 05:46:49;;;;;;;3.53;1.52;;;;;;;;;;5071560;28;20270;-49
2021/01/25 05:49:25;;;;;;;3.40;1.60;;;;;;;;;;5058103;28;20183;-49
2021/01/25 05:51:53;;;;;;;2.40;1.42;;;;;;;;;;5062617;28;20274;-48
2021/01/25 05:54:20;;;;;;;3.72;1.80;;;;;;;;;;5060651;28;20186;-49
2021/01/25 05:56:46;;;;;;;2.03;1.60;;;;;;;;;;5057428;28;20588;-48
2021/01/25 05:59:12;;;;;;;3.78;1.50;;;;;;;;;;5058541;28;20176;-49
2021/01/25 06:01:38;;;;;;;2.20;1.40;;;;;;;;;;5055563;28;20229;-49
2021/01/25 06:04:06;;;;;;;2.28;1.60;;;;;;;;;;5061494;28;20205;-49
2021/01/25 06:06:35;;;;;;;2.15;1.45;;;;;;;;;;5061604;28;20213;-49
2021/01/25 06:09:20;;;;;;;1.50;1.38;;;;;;;;;;5075494;28;20179;-49
2021/01/25 06:11:46;;;;;;;4.25;1.98;;;;;;;;;;5071515;28;20183;-48
2021/01/25 06:14:27;;;;;;;1.50;1.40;;;;;;;;;;5056611;28;20214;-49
2021/01/25 06:16:54;;;;;;;4.25;2.03;;;;;;;;;;5060501;28;20182;-49
2021/01/25 06:19:28;;;;;;;2.72;1.50;;;;;;;;;;5073437;28;20206;-49
2021/01/25 06:21:55;;;;;;;2.88;1.77;;;;;;;;;;5055553;28;20265;-49
2021/01/25 06:24:22;;;;;;;3.70;2.10;;;;;;;;;;5070675;28;20227;-48
2021/01/25 06:26:49;;;;;;;3.95;1.65;;;;;;;;;;5072284;28;20175;-49
2021/01/25 06:29:19;;;;;;;4.68;1.70;;;;;;;;;;5055070;28;20187;-49
2021/01/25 06:31:51;;;;;;;3.47;1.80;;;;;;;;;;5073930;28;20178;-49
2021/01/25 06:34:20;;;;;;;3.17;1.75;;;;;;;;;;5066753;28;20183;-48
2021/01/25 06:36:46;;;;;;;3.13;1.67;;;;;;;;;;5055493;28;20183;-48
2021/01/25 06:39:12;;;;;;;4.15;1.73;;;;;;;;;;5055365;28;20175;-49
2021/01/25 06:41:39;;;;;;;3.28;1.73;;;;;;;;;;5063404;28;20214;-49
2021/01/25 06:44:06;;;;;;;4.28;1.67;;;;;;;;;;5061856;28;20180;-48
2021/01/25 06:46:33;;;;;;;2.33;1.70;;;;;;;;;;5055074;28;20573;-49
2021/01/25 06:49:00;;;;;;;2.38;1.58;;;;;;;;;;5061209;28;20489;-49
2021/01/25 06:51:26;;;;;;;1.73;1.50;;;;;;;;;;5065808;28;20195;-48
2021/01/25 06:53:59;;;;;;;2.30;1.90;;;;;;;;;;5073064;28;20578;-48
2021/01/25 06:56:25;;;;;;;1.95;1.60;;;;;;;;;;5072211;28;20186;-49
2021/01/25 06:58:51;;;;;;;3.72;1.77;;;;;;;;;;5059764;28;20266;-48
2021/01/25 07:01:19;;;;;;;3.05;2.20;;;;;;;;;;5073967;28;20233;-49
2021/01/25 07:03:57;;;;;;;3.42;1.63;;;;;;;;;;5068625;28;20179;-48
2021/01/25 07:06:35;;;;;;;2.00;1.58;;;;;;;;;;5073887;28;20457;-48
2021/01/25 07:09:02;;;;;;;2.10;1.63;;;;;;;;;;5059521;28;20510;-48
2021/01/25 07:11:29;;;;;;;2.75;2.10;;;;;;;;;;5074351;28;20498;-48
2021/01/25 07:13:55;;;;;;;2.40;1.98;;;;;;;;;;5074687;28;20542;-49
2021/01/25 07:16:23;;;;;;;2.25;1.73;;;;;;;;;;5069992;28;20273;-49
2021/01/25 07:18:49;;;;;;;2.13;1.92;;;;;;;;;;5071855;28;20202;-49
2021/01/25 07:21:16;;;;;;;2.20;1.73;;;;;;;;;;5070644;28;20700;-49
2021/01/25 07:23:45;;;;;;;2.25;2.05;;;;;;;;;;5055709;28;20226;-49
2021/01/25 07:26:13;;;;;;;3.80;2.28;;;;;;;;;;5054027;28;20175;-48
2021/01/25 07:28:39;;;;;;;2.17;1.60;;;;;;;;;;5060785;28;20622;-49
2021/01/25 07:31:06;;;;;;;2.08;1.88;;;;;;;;;;5069915;28;20193;-48
2021/01/25 07:33:32;;;;;;;1.90;1.80;;;;;;;;;;5062920;28;20182;-49
2021/01/25 07:35:58;;;;;;;3.15;2.20;;;;;;;;;;5059171;28;20179;-49
2021/01/25 07:38:27;;;;;;;4.82;2.13;;;;;;;;;;5069193;28;20190;-48
2021/01/25 07:40:57;;;;;;;2.30;2.10;;;;;;;;;;5055433;28;20260;-49
2021/01/25 07:43:24;;;;;;;2.65;2.05;;;;;;;;;;5067897;28;20190;-49
2021/01/25 07:45:51;;;;;;;2.05;1.83;;;;;;;;;;5067895;28;20186;-48
2021/01/25 07:48:17;;;;;;;3.28;2.40;;;;;;;;;;5060289;28;20198;-49
2021/01/25 07:50:52;;;;;;;2.47;2.28;;;;;;;;;;5058105;28;20551;-48
2021/01/25 07:53:18;;;;;;;3.08;2.22;;;;;;;;;;5054318;28;20187;-49
2021/01/25 07:55:44;;;;;;;2.50;2.30;;;;;;;;;;5057145;28;20287;-49
2021/01/25 07:58:11;;;;;;;2.83;2.28;;;;;;;;;;5065490;28;20194;-49
2021/01/25 08:00:40;;;;;;;2.83;2.30;;;;;;;;;;5055689;28;20203;-48
2021/01/25 08:03:09;;;;;;;3.08;2.60;;;;;;;;;;5055651;28;20175;-48
2021/01/25 08:05:35;;;;;;;2.67;2.17;;;;;;;;;;5065279;28;20716;-48
2021/01/25 08:08:09;;;;;;;2.63;2.42;;;;;;;;;;5068037;28;20189;-49
2021/01/25 08:10:35;;;;;;;3.55;2.60;;;;;;;;;;5058010;28;20183;-48
2021/01/25 08:13:02;;;;;;;3.25;2.30;;;;;;;;;;5056188;28;20186;-47
2021/01/25 08:15:30;;;;;;;2.22;2.03;;;;;;;;;;5071070;28;20195;-48
2021/01/25 08:18:00;;;;;;;2.45;2.25;;;;;;;;;;5059661;28;20221;-49
2021/01/25 08:20:29;;;;;;;2.50;2.30;;;;;;;;;;5059442;28;20218;-48
2021/01/25 08:23:15;;;;;;;2.70;2.50;;;;;;;;;;5060399;28;20249;-49
2021/01/25 08:25:41;;;;;;;2.88;2.38;;;;;;;;;;5059574;28;20201;-49
2021/01/25 08:28:19;;;;;;;2.97;2.50;;;;;;;;;;5059407;28;20183;-49
2021/01/25 08:30:50;;;;;;;2.78;2.47;;;;;;;;;;5064074;28;20214;-49
2021/01/25 08:33:30;;;;;;;3.17;2.63;;;;;;;;;;5073570;28;20179;-49
2021/01/25 08:35:57;;;;;;;4.40;2.50;;;;;;;;;;5060077;28;20570;-49
2021/01/25 08:38:25;;;;;;;3.08;2.50;;;;;;;;;;5069098;28;20558;-48
2021/01/25 08:40:52;;;;;;;2.97;2.67;;;;;;;;;;5061890;28;20203;-49
2021/01/25 08:43:20;;;;;;;4.13;2.67;;;;;;;;;;5053198;28;20623;-48
2021/01/25 08:45:46;;;;;;;6.32;2.63;;;;;;;;;;5053371;28;20179;-49
2021/01/25 08:48:12;;;;;;;2.85;2.65;;;;;;;;;;5068187;28;20197;-48
2021/01/25 08:50:38;;;;;;;3.30;2.95;;;;;;;;;;5065884;28;20193;-48
2021/01/25 08:53:09;;;;;;;2.92;2.72;;;;;;;;;;5060997;28;20232;-48
2021/01/25 08:55:35;;;;;;;3.58;2.58;;;;;;;;;;5056273;28;20569;-49
2021/01/25 08:58:02;;;;;;;4.72;3.10;;;;;;;;;;5057360;28;20249;-48
2021/01/25 09:00:28;;;;;;;3.92;2.88;;;;;;;;;;5068331;28;20198;-49
2021/01/25 09:03:04;;;;;;;3.03;2.78;;;;;;;;;;5076750;28;20213;-48
2021/01/25 09:05:31;;;;;;;3.97;2.70;;;;;;;;;;5075463;28;20186;-49
2021/01/25 09:07:57;;;;;;;3.20;2.90;;;;;;;;;;5076809;28;20362;-48
2021/01/25 09:10:23;;;;;;;3.60;2.97;;;;;;;;;;5074224;28;20605;-48
2021/01/25 09:12:49;;;;;;;4.20;2.97;;;;;;;;;;5075260;28;20627;-49
2021/01/25 09:15:16;;;;;;;3.90;3.50;;;;;;;;;;5076388;28;20224;-49
2021/01/25 09:17:42;;;;;;;3.92;3.38;;;;;;;;;;5069547;28;20175;-48
2021/01/25 09:20:09;;;;;;;3.67;3.38;;;;;;;;;;5059262;28;20210;-49
2021/01/25 09:22:35;;;;;;;3.60;3.30;;;;;;;;;;5056972;28;20262;-48
2021/01/25 09:25:02;;;;;;;5.00;3.72;;;;;;;;;;5071970;28;20182;-49
2021/01/25 09:27:28;;;;;;;3.60;3.20;;;;;;;;;;5073697;28;20175;-48
2021/01/25 09:29:54;;;;;;;4.13;3.35;;;;;;;;;;5056861;28;20514;-48
2021/01/25 09:32:20;;;;;;;4.55;3.60;;;;;;;;;;5066820;28;20280;-48
2021/01/25 09:34:46;;;;;;;3.95;3.55;;;;;;;;;;5060193;28;20691;-49
2021/01/25 09:37:12;;;;;;;4.45;3.90;;;;;;;;;;5056716;28;20206;-48
2021/01/25 09:39:39;;;;;;;5.00;3.83;;;;;;;;;;5061625;28;20211;-48
2021/01/25 09:42:06;;;;;;;4.88;3.97;;;;;;;;;;5059899;28;20187;-48
2021/01/25 09:44:33;;;;;;;4.22;3.83;;;;;;;;;;5058892;28;20179;-49
2021/01/25 09:46:59;;;;;;;5.70;3.55;;;;;;;;;;5075972;28;20175;-49
2021/01/25 09:49:25;;;;;;;4.00;3.60;;;;;;;;;;5061061;28;20577;-49
2021/01/25 09:51:52;;;;;;;3.70;3.40;;;;;;;;;;5070802;28;20179;-49
2021/01/25 09:54:18;;;;;;;4.38;3.85;;;;;;;;;;5056083;28;20183;-49
2021/01/25 09:56:45;;;;;;;4.60;4.10;;;;;;;;;;5057480;28;20183;-49
2021/01/25 09:59:11;;;;;;;4.25;3.78;;;;;;;;;;5056069;28;20183;-48
2021/01/25 10:01:36;;;;;;;4.85;3.70;;;;;;;;;;5070249;28;20189;-48
2021/01/25 10:04:02;;;;;;;4.05;3.65;;;;;;;;;;5074289;28;20186;-49
2021/01/25 10:06:29;;;;;;;4.15;3.47;;;;;;;;;;5059442;28;20187;-48
2021/01/25 10:08:58;;;;;;;5.45;3.75;;;;;;;;;;5068062;28;20218;-48
2021/01/25 10:11:24;;;;;;;3.90;3.50;;;;;;;;;;5070913;28;20186;-49
2021/01/25 10:13:50;;;;;;;4.55;3.67;;;;;;;;;;5063723;28;20201;-49
2021/01/25 10:16:16;;;;;;;4.05;3.47;;;;;;;;;;5068645;28;20259;-48
2021/01/25 10:18:42;;;;;;;4.10;3.70;;;;;;;;;;5072804;28;20287;-48
2021/01/25 10:21:09;;;;;;;4.20;3.80;;;;;;;;;;5072045;28;20242;-48
2021/01/25 10:23:35;;;;;;;3.97;3.63;;;;;;;;;;5061788;28;20264;-49
2021/01/25 10:26:02;;;;;;;4.68;4.18;;;;;;;;;;5062426;28;20616;-49
2021/01/25 10:28:28;;;;;;;4.30;3.90;;;;;;;;;;5055034;28;20206;-49
2021/01/25 10:30:54;;;;;;;5.05;4.05;;;;;;;;;;5055736;28;20273;-47
2021/01/25 10:33:19;;;;;;;4.72;3.85;;;;;;;;;;5055152;28;20183;-48
2021/01/25 10:35:45;;;;;;;6.05;4.22;;;;;;;;;;5066881;28;20197;-48
2021/01/25 10:38:11;;;;;;;4.90;3.75;;;;;;;;;;5075200;28;20185;-49
2021/01/25 10:40:37;;;;;;;5.65;3.95;;;;;;;;;;5072432;28;20478;-48
2021/01/25 10:43:04;;;;;;;4.97;3.92;;;;;;;;;;5063453;28;20214;-49
2021/01/25 10:45:30;;;;;;;4.88;3.67;;;;;;;;;;5072898;28;20190;-48
2021/01/25 10:47:56;;;;;;;4.80;3.85;;;;;;;;;;5074924;28;20185;-48
2021/01/25 10:50:22;;;;;;;6.07;4.30;;;;;;;;;;5063276;28;20275;-49
2021/01/25 10:52:49;;;;;;;5.35;4.00;;;;;;;;;;5067261;28;20531;-49
2021/01/25 10:55:15;;;;;;;6.53;4.13;;;;;;;;;;5063816;28;20187;-49
2021/01/25 10:57:41;;;;;;;6.00;4.55;;;;;;;;;;5054931;28;20215;-49
2021/01/25 11:00:09;;;;;;;5.25;4.18;;;;;;;;;;5057703;28;20574;-49
2021/01/25 11:02:35;;;;;;;8.15;4.28;;;;;;;;;;5068524;28;20196;-48
2021/01/25 11:05:03;;;;;;;5.53;3.95;;;;;;;;;;5069238;28;20557;-49
2021/01/25 11:07:30;;;;;;;5.07;3.85;;;;;;;;;;5074428;28;20465;-49
2021/01/25 11:09:56;;;;;;;6.40;4.20;;;;;;;;;;5074887;28;20178;-48
2021/01/25 11:12:22;;;;;;;5.80;4.25;;;;;;;;;;5065954;28;20187;-47
2021/01/25 11:14:48;;;;;;;7.63;4.22;;;;;;;;;;5054437;28;20258;-49
2021/01/25 11:17:14;;;;;;;6.88;4.20;;;;;;;;;;5071387;28;20263;-48
2021/01/25 11:19:40;;;;;;;4.47;3.90;;;;;;;;;;5070622;28;20210;-48
2021/01/25 11:22:06;;;;;;;8.10;4.05;;;;;;;;;;5074571;28;20589;-48
2021/01/25 11:24:32;;;;;;;4.07;3.63;;;;;;;;;;5072835;28;20190;-49
2021/01/25 11:27:00;;;;;;;5.55;3.90;;;;;;;;;;5073686;28;20486;-49
2021/01/25 11:29:29;;;;;;;5.82;4.22;;;;;;;;;;5056526;28;20175;-49
2021/01/25 11:31:55;;;;;;;5.85;4.03;;;;;;;;;;5054430;28;20318;-49
2021/01/25 11:34:21;;;;;;;5.50;3.88;;;;;;;;;;5053455;28;20174;-48
2021/01/25 11:36:47;;;;;;;5.10;4.25;;;;;;;;;;5054288;28;20178;-49
2021/01/25 11:39:13;;;;;;;4.18;3.60;;;;;;;;;;5058338;28;20201;-48
2021/01/25 11:41:39;;;;;;;7.05;5.53;;;;;;;;;;5069636;28;20993;-49
2021/01/25 11:44:05;;;;;;;32.90;19.70;;;;;;;;;;5057901;28;20182;-49
2021/01/25 11:46:31;;;;;;;31.95;17.88;;;;;;;;;;5053745;28;20624;-49
2021/01/25 11:48:57;;;;;;;24.85;15.35;;;;;;;;;;5053950;28;20183;-49
2021/01/25 11:51:23;;;;;;;26.20;14.75;;;;;;;;;;5064617;28;20216;-48
2021/01/25 11:53:49;;;;;;;24.88;13.40;;;;;;;;;;5053849;28;20205;-49
2021/01/25 11:56:15;;;;;;;19.00;12.80;;;;;;;;;;5056105;28;20193;-49
2021/01/25 11:58:41;;;;;;;19.05;11.73;;;;;;;;;;5053532;28;20229;-49
2021/01/25 12:01:07;;;;;;;20.38;11.60;;;;;;;;;;5054835;28;20285;-49
2021/01/25 12:03:33;;;;;;;17.33;11.27;;;;;;;;;;5057456;28;20179;-48
2021/01/25 12:05:59;;;;;;;16.25;10.88;;;;;;;;;;5072591;28;20520;-49
2021/01/25 12:08:25;;;;;;;13.88;9.90;;;;;;;;;;5073028;28;20228;-48
2021/01/25 12:10:51;;;;;;;14.23;9.75;;;;;;;;;;5059901;28;20428;-49
2021/01/25 12:13:17;;;;;;;14.18;9.05;;;;;;;;;;5053954;28;20605;-49
2021/01/25 12:15:44;;;;;;;12.02;7.25;;;;;;;;;;5059028;28;20229;-49
2021/01/25 12:18:09;;;;;;;11.88;6.95;;;;;;;;;;5054660;28;20309;-48
2021/01/25 12:20:35;;;;;;;13.98;7.20;;;;;;;;;;5056418;28;20285;-49
2021/01/25 12:23:01;;;;;;;12.50;7.10;;;;;;;;;;5069443;28;20183;-48
2021/01/25 12:25:27;;;;;;;10.80;6.13;;;;;;;;;;5062970;28;20197;-49
2021/01/25 12:27:54;;;;;;;7.47;6.10;;;;;;;;;;5052928;28;20194;-49
2021/01/25 12:30:21;;;;;;;10.85;6.53;;;;;;;;;;5053218;28;20517;-49
2021/01/25 12:32:47;;;;;;;9.07;5.93;;;;;;;;;;5053606;28;20190;-49
2021/01/25 12:35:13;;;;;;;8.38;5.50;;;;;;;;;;5061815;28;20221;-49
2021/01/25 12:37:39;;;;;;;8.15;5.22;;;;;;;;;;5069758;28;20288;-48
2021/01/25 12:40:07;;;;;;;6.55;5.15;;;;;;;;;;5053444;28;20972;-49
2021/01/25 12:42:33;;;;;;;7.55;5.38;;;;;;;;;;5061940;28;20228;-48
2021/01/25 12:44:59;;;;;;;8.55;4.88;;;;;;;;;;5065257;28;20190;-49
2021/01/25 12:47:25;;;;;;;6.35;4.97;;;;;;;;;;5055834;28;20185;-49
2021/01/25 12:49:51;;;;;;;8.27;4.43;;;;;;;;;;5057200;28;20179;-49
2021/01/25 12:52:17;;;;;;;6.65;4.40;;;;;;;;;;5062744;28;20202;-49
2021/01/25 12:54:43;;;;;;;6.03;4.47;;;;;;;;;;5056084;28;20235;-49
2021/01/25 12:57:09;;;;;;;6.28;4.40;;;;;;;;;;5072196;28;20531;-49
2021/01/25 12:59:35;;;;;;;7.10;4.50;;;;;;;;;;5069190;28;20187;-49
2021/01/25 13:02:01;;;;;;;8.13;4.20;;;;;;;;;;5065010;28;20304;-49
2021/01/25 13:04:27;;;;;;;7.13;4.45;;;;;;;;;;5063348;28;20200;-49
2021/01/25 13:06:53;;;;;;;6.20;3.95;;;;;;;;;;5071892;28;20584;-48
2021/01/25 13:09:19;;;;;;;5.78;4.20;;;;;;;;;;5061680;28;20561;-49
2021/01/25 13:11:45;;;;;;;6.05;4.45;;;;;;;;;;5073140;28;20201;-49
2021/01/25 13:14:11;;;;;;;5.35;3.70;;;;;;;;;;5071965;28;20258;-49
2021/01/25 13:16:37;;;;;;;7.53;4.25;;;;;;;;;;5072689;28;20174;-49
2021/01/25 13:19:03;;;;;;;5.32;3.80;;;;;;;;;;5064208;28;20229;-49
2021/01/25 13:21:29;;;;;;;6.18;4.28;;;;;;;;;;5052374;28;20267;-49
2021/01/25 13:23:55;;;;;;;4.15;3.40;;;;;;;;;;5053133;28;20685;-49
2021/01/25 13:26:21;;;;;;;4.22;3.30;;;;;;;;;;5054806;28;20497;-49
2021/01/25 13:28:48;;;;;;;5.45;3.22;;;;;;;;;;5053198;28;20284;-49
2021/01/25 13:31:14;;;;;;;5.85;3.45;;;;;;;;;;5053095;28;20194;-48
2021/01/25 13:33:40;;;;;;;4.10;3.67;;;;;;;;;;5052597;28;20270;-49
2021/01/25 13:36:06;;;;;;;6.95;4.10;;;;;;;;;;5053483;28;20191;-49
2021/01/25 13:38:33;;;;;;;6.55;4.45;;;;;;;;;;5059290;28;20205;-49
2021/01/25 13:40:59;;;;;;;9.93;5.03;;;;;;;;;;5064845;28;20210;-48
2021/01/25 13:43:25;;;;;;;10.95;5.63;;;;;;;;;;5075505;28;20170;-49
2021/01/25 13:45:51;;;;;;;14.13;6.35;;;;;;;;;;5066424;28;21060;-49
2021/01/25 13:48:17;;;;;;;13.93;6.45;;;;;;;;;;5066568;28;20189;-49
2021/01/25 13:50:43;;;;;;;14.63;6.90;;;;;;;;;;5065865;28;20186;-49
2021/01/25 13:53:10;;;;;;;16.42;7.53;;;;;;;;;;5068945;28;20180;-49
2021/01/25 13:55:37;;;;;;;16.65;8.55;;;;;;;;;;5075423;28;20277;-49
2021/01/25 13:58:03;;;;;;;23.98;8.75;;;;;;;;;;5076031;28;20615;-48
2021/01/25 14:00:31;;;;;;;21.75;10.45;;;;;;;;;;5073892;28;20209;-49
2021/01/25 14:02:57;;;;;;;23.30;9.70;;;;;;;;;;5070982;28;20183;-49
2021/01/25 14:05:23;;;;;;;23.92;9.95;;;;;;;;;;5069595;28;20183;-49
2021/01/25 14:07:50;;;;;;;21.00;9.60;;;;;;;;;;5064652;28;20228;-49
2021/01/25 14:10:17;;;;;;;22.73;9.40;;;;;;;;;;5062136;28;20194;-49
2021/01/25 14:12:43;;;;;;;26.63;9.82;;;;;;;;;;5065809;28;20443;-48
2021/01/25 14:15:09;;;;;;;18.77;8.32;;;;;;;;;;5063834;28;20195;-49
2021/01/25 14:17:35;;;;;;;22.67;8.98;;;;;;;;;;5065056;28;20580;-49
2021/01/25 14:20:02;;;;;;;18.23;8.50;;;;;;;;;;5066159;28;20221;-49
2021/01/25 14:22:28;;;;;;;23.42;9.82;;;;;;;;;;5055646;28;20190;-49
2021/01/25 14:24:54;;;;;;;18.42;8.07;;;;;;;;;;5065718;28;20179;-48
2021/01/25 14:27:20;;;;;;;17.65;7.95;;;;;;;;;;5061350;28;20183;-48
2021/01/25 14:29:46;;;;;;;18.88;8.20;;;;;;;;;;5070355;28;20191;-48
2021/01/25 14:32:12;;;;;;;17.92;7.70;;;;;;;;;;5069580;28;20183;-48
2021/01/25 14:34:39;;;;;;;16.63;7.80;;;;;;;;;;5074529;28;20577;-48
2021/01/25 14:37:06;;;;;;;17.45;7.75;;;;;;;;;;5072939;28;20183;-48
2021/01/25 14:39:32;;;;;;;16.77;7.45;;;;;;;;;;5066193;28;20232;-48